createdAt,value
2022-08-31T00:01:02.705Z,5.20
2022-08-31T00:03:49.183Z,5.47
2022-08-31T00:06:18.496Z,4.83
2022-08-31T00:08:47.501Z,5.23
2022-08-31T00:11:16.888Z,5.40
2022-08-31T00:13:46.468Z,5.13
2022-08-31T00:16:17.171Z,5.40
2022-08-31T00:18:46.950Z,5.67
2022-08-31T00:21:15.966Z,5.63
2022-08-31T00:23:44.774Z,5.70
2022-08-31T00:26:13.548Z,6.00
2022-08-31T00:28:42.507Z,5.47
2022-08-31T00:31:13.388Z,5.30
2022-08-31T00:33:44.436Z,5.30
2022-08-31T00:36:15.303Z,5.57
2022-08-31T00:38:44.405Z,5.23
2022-08-31T00:41:13.463Z,5.40
2022-08-31T00:43:47.571Z,5.43
2022-08-31T00:46:20.365Z,5.17
2022-08-31T00:48:59.382Z,5.50
2022-08-31T00:51:30.479Z,5.40
2022-08-31T00:54:00.404Z,5.87
2022-08-31T00:56:31.289Z,5.93
2022-08-31T00:59:01.001Z,5.57
2022-08-31T01:01:30.724Z,5.40
2022-08-31T01:04:01.339Z,5.47
2022-08-31T01:06:30.363Z,5.33
2022-08-31T01:09:00.876Z,5.50
2022-08-31T01:11:30.090Z,5.67
2022-08-31T01:13:59.357Z,5.70
2022-08-31T01:16:34.349Z,5.83
2022-08-31T01:19:11.072Z,6.13
2022-08-31T01:21:45.955Z,5.63
2022-08-31T01:24:17.983Z,5.60
2022-08-31T01:26:53.764Z,5.40
2022-08-31T01:29:25.195Z,5.73
2022-08-31T01:31:54.007Z,6.07
2022-08-31T01:34:22.830Z,5.63
2022-08-31T01:36:52.740Z,6.20
2022-08-31T01:39:23.531Z,5.60
2022-08-31T01:41:53.931Z,6.00
2022-08-31T01:44:25.746Z,6.50
2022-08-31T01:46:54.838Z,6.23
2022-08-31T01:49:24.959Z,5.87
2022-08-31T01:51:55.328Z,6.23
2022-08-31T01:54:27.613Z,5.60
2022-08-31T01:56:58.405Z,5.90
2022-08-31T01:59:41.063Z,6.40
2022-08-31T02:02:28.824Z,5.77
2022-08-31T02:04:59.374Z,6.17
2022-08-31T02:07:28.429Z,6.37
2022-08-31T02:09:58.957Z,6.17
2022-08-31T02:12:28.307Z,5.77
2022-08-31T02:14:57.275Z,6.10
2022-08-31T02:17:26.519Z,6.00
2022-08-31T02:19:55.426Z,5.63
2022-08-31T02:22:24.446Z,5.63
2022-08-31T02:24:57.701Z,5.90
2022-08-31T02:27:28.039Z,6.30
2022-08-31T02:29:57.940Z,6.00
2022-08-31T02:32:27.046Z,5.87
2022-08-31T02:34:56.074Z,6.00
2022-08-31T02:37:26.290Z,6.10
2022-08-31T02:39:57.824Z,5.87
2022-08-31T02:42:30.049Z,6.27
2022-08-31T02:45:09.688Z,6.37
2022-08-31T02:47:39.861Z,6.17
2022-08-31T02:50:17.933Z,5.70
2022-08-31T02:52:47.751Z,6.23
2022-08-31T02:55:18.807Z,6.17
2022-08-31T02:57:52.220Z,6.00
2022-08-31T03:00:24.347Z,6.30
2022-08-31T03:02:53.295Z,5.90
2022-08-31T03:05:23.261Z,6.13
2022-08-31T03:07:53.444Z,6.07
2022-08-31T03:10:26.109Z,6.70
2022-08-31T03:12:55.224Z,5.80
2022-08-31T03:15:26.915Z,6.70
2022-08-31T03:17:56.242Z,6.20
2022-08-31T03:20:28.296Z,6.47
2022-08-31T03:22:57.615Z,6.47
2022-08-31T03:25:30.641Z,6.33
2022-08-31T03:27:59.764Z,6.20
2022-08-31T03:30:31.415Z,6.40
2022-08-31T03:33:05.183Z,5.93
2022-08-31T03:35:35.732Z,6.63
2022-08-31T03:38:05.516Z,6.60
2022-08-31T03:40:36.503Z,6.30
2022-08-31T03:43:06.202Z,6.40
2022-08-31T03:45:36.887Z,6.77
2022-08-31T03:48:11.429Z,6.53
2022-08-31T03:50:43.411Z,6.80
2022-08-31T03:53:22.752Z,7.10
2022-08-31T03:56:01.089Z,6.33
2022-08-31T03:58:32.709Z,6.20
2022-08-31T04:01:04.642Z,6.83
2022-08-31T04:03:52.605Z,6.40
2022-08-31T04:06:41.439Z,6.27
2022-08-31T04:09:29.068Z,7.10
2022-08-31T04:12:02.450Z,6.60
2022-08-31T04:14:50.781Z,6.73
2022-08-31T04:17:49.148Z,6.63
2022-08-31T04:20:41.290Z,6.53
2022-08-31T04:23:11.224Z,6.73
2022-08-31T04:25:48.359Z,6.83
2022-08-31T04:28:19.204Z,6.93
2022-08-31T04:30:48.548Z,6.30
2022-08-31T04:33:18.448Z,6.80
2022-08-31T04:35:47.621Z,7.10
2022-08-31T04:38:16.806Z,7.00
2022-08-31T04:40:47.977Z,6.20
2022-08-31T04:43:23.759Z,6.83
2022-08-31T04:45:53.647Z,6.60
2022-08-31T04:48:23.975Z,6.73
2022-08-31T04:51:00.180Z,6.70
2022-08-31T04:53:29.683Z,6.73
2022-08-31T04:55:58.827Z,6.87
2022-08-31T04:58:29.544Z,6.40
2022-08-31T05:00:58.626Z,6.60
2022-08-31T05:03:52.909Z,6.73
2022-08-31T05:06:24.627Z,6.83
2022-08-31T05:08:56.463Z,6.47
2022-08-31T05:11:26.617Z,6.83
2022-08-31T05:13:58.792Z,7.27
2022-08-31T05:16:30.618Z,7.23
2022-08-31T05:19:01.754Z,6.60
2022-08-31T05:21:33.521Z,6.87
2022-08-31T05:24:05.170Z,6.67
2022-08-31T05:26:36.767Z,6.30
2022-08-31T05:29:10.689Z,6.83
2022-08-31T05:31:39.976Z,6.47
2022-08-31T05:34:12.536Z,6.93
2022-08-31T05:36:42.622Z,6.23
2022-08-31T05:39:13.151Z,6.47
2022-08-31T05:41:44.938Z,6.23
2022-08-31T05:44:16.708Z,6.67
2022-08-31T05:46:57.230Z,6.33
2022-08-31T05:49:28.167Z,6.37
2022-08-31T05:51:59.014Z,6.80
2022-08-31T05:54:28.189Z,6.67
2022-08-31T05:57:01.246Z,6.40
2022-08-31T05:59:32.795Z,6.70
2022-08-31T06:02:04.217Z,5.97
2022-08-31T06:04:36.415Z,5.80
2022-08-31T06:07:06.287Z,6.33
2022-08-31T06:09:41.823Z,6.23
2022-08-31T06:12:11.597Z,6.00
2022-08-31T06:14:46.366Z,6.37
2022-08-31T06:17:17.914Z,6.00
2022-08-31T06:19:46.964Z,5.97
2022-08-31T06:22:16.103Z,5.83
2022-08-31T06:24:45.022Z,6.07
2022-08-31T06:27:14.600Z,6.27
2022-08-31T06:29:44.951Z,5.83
2022-08-31T06:32:15.509Z,6.00
2022-08-31T06:34:52.574Z,5.90
2022-08-31T06:37:41.772Z,5.50
2022-08-31T06:40:11.845Z,5.73
2022-08-31T06:43:17.841Z,6.40
2022-08-31T06:46:09.203Z,6.10
2022-08-31T06:48:59.831Z,5.43
2022-08-31T06:51:36.351Z,5.40
2022-08-31T06:54:27.429Z,5.80
2022-08-31T06:57:15.359Z,5.17
2022-08-31T07:00:03.355Z,5.10
2022-08-31T07:02:44.911Z,5.40
2022-08-31T07:05:24.784Z,5.10
2022-08-31T07:07:55.839Z,4.93
2022-08-31T07:10:26.198Z,5.20
2022-08-31T07:12:55.191Z,5.20
2022-08-31T07:15:24.321Z,5.57
2022-08-31T07:17:54.648Z,5.30
2022-08-31T07:20:24.216Z,5.87
2022-08-31T07:22:53.239Z,5.70
2022-08-31T07:25:39.166Z,4.93
2022-08-31T07:28:08.166Z,4.70
2022-08-31T07:30:38.157Z,5.30
2022-08-31T07:33:09.371Z,5.20
2022-08-31T07:35:43.231Z,5.17
2022-08-31T07:38:52.615Z,5.27
2022-08-31T07:41:41.270Z,4.90
2022-08-31T07:44:11.248Z,5.23
2022-08-31T07:46:41.086Z,5.07
2022-08-31T07:49:13.894Z,5.03
2022-08-31T07:51:50.174Z,5.27
2022-08-31T07:54:39.754Z,5.10
2022-08-31T07:57:36.358Z,5.37
2022-08-31T08:00:09.355Z,5.27
2022-08-31T08:02:52.865Z,5.40
2022-08-31T08:05:28.702Z,5.07
2022-08-31T08:08:22.954Z,4.80
2022-08-31T08:11:16.504Z,5.00
2022-08-31T08:14:08.721Z,4.37
2022-08-31T08:17:00.170Z,4.50
2022-08-31T08:19:42.164Z,4.57
2022-08-31T08:22:13.387Z,4.37
2022-08-31T08:25:02.230Z,4.30
2022-08-31T08:27:44.524Z,4.20
2022-08-31T08:30:24.187Z,4.50
2022-08-31T08:32:53.267Z,4.23
2022-08-31T08:35:22.859Z,4.10
2022-08-31T08:37:59.263Z,3.97
2022-08-31T08:40:34.060Z,3.83
2022-08-31T08:43:06.075Z,4.20
2022-08-31T08:45:36.244Z,3.80
2022-08-31T08:48:11.336Z,4.10
2022-08-31T08:50:42.264Z,4.20
2022-08-31T08:53:15.489Z,3.73
2022-08-31T08:56:12.531Z,3.90
2022-08-31T08:58:46.993Z,3.90
2022-08-31T09:01:24.711Z,3.43
2022-08-31T09:04:02.145Z,4.20
2022-08-31T09:07:11.965Z,4.30
2022-08-31T09:09:50.859Z,3.60
2022-08-31T09:12:30.856Z,3.47
2022-08-31T09:15:36.618Z,3.60
2022-08-31T09:18:20.826Z,3.50
2022-08-31T09:21:11.670Z,3.77
2022-08-31T09:23:44.178Z,3.60
2022-08-31T09:26:18.687Z,3.97
2022-08-31T09:29:14.374Z,3.63
2022-08-31T09:31:46.440Z,12.03
2022-08-31T09:34:29.435Z,7.20
2022-08-31T09:37:16.112Z,4.20
2022-08-31T09:39:48.472Z,3.80
2022-08-31T09:42:32.123Z,3.77
2022-08-31T09:45:09.594Z,4.30
2022-08-31T09:47:51.056Z,3.70
2022-08-31T09:50:33.883Z,3.70
2022-08-31T09:53:34.228Z,3.70
2022-08-31T09:56:14.050Z,3.83
2022-08-31T09:58:47.070Z,6.03
2022-08-31T10:01:20.986Z,3.97
2022-08-31T10:03:51.325Z,3.73
2022-08-31T10:06:44.091Z,4.73
2022-08-31T10:09:28.111Z,7.27
2022-08-31T10:12:00.073Z,4.60
2022-08-31T10:14:38.356Z,3.77
2022-08-31T10:17:15.153Z,4.40
2022-08-31T10:19:55.289Z,4.53
2022-08-31T10:22:32.542Z,4.13
2022-08-31T10:25:12.899Z,4.17
2022-08-31T10:27:48.722Z,4.13
2022-08-31T10:30:24.787Z,4.23
2022-08-31T10:32:58.814Z,4.13
2022-08-31T10:35:36.293Z,4.70
2022-08-31T10:38:19.933Z,4.20
2022-08-31T10:40:54.975Z,4.07
2022-08-31T10:43:29.167Z,4.10
2022-08-31T10:46:03.549Z,4.10
2022-08-31T10:48:33.961Z,4.70
2022-08-31T10:51:14.150Z,5.37
2022-08-31T10:53:52.566Z,8.33
2022-08-31T10:56:26.314Z,5.20
2022-08-31T10:59:06.415Z,4.57
2022-08-31T11:01:45.915Z,4.50
2022-08-31T11:04:34.573Z,4.83
2022-08-31T11:07:13.142Z,4.00
2022-08-31T11:09:50.255Z,5.17
2022-08-31T11:12:24.978Z,5.17
2022-08-31T11:15:22.357Z,6.07
2022-08-31T11:18:15.108Z,4.27
2022-08-31T11:21:07.812Z,4.90
2022-08-31T11:23:51.143Z,4.40
2022-08-31T11:26:52.843Z,4.63
2022-08-31T11:29:43.804Z,4.33
2022-08-31T11:32:20.690Z,4.47
2022-08-31T11:34:54.804Z,4.03
2022-08-31T11:37:56.067Z,4.87
2022-08-31T11:41:05.971Z,4.60
2022-08-31T11:44:02.174Z,4.53
2022-08-31T11:46:50.570Z,4.23
2022-08-31T11:49:54.146Z,4.30
2022-08-31T11:52:40.972Z,4.30
2022-08-31T11:55:23.083Z,4.50
2022-08-31T11:58:33.628Z,4.10
2022-08-31T12:01:33.768Z,4.83
2022-08-31T12:04:04.384Z,4.37
2022-08-31T12:07:10.996Z,4.40
2022-08-31T12:10:12.802Z,4.80
2022-08-31T12:13:18.471Z,4.23
2022-08-31T12:16:06.815Z,4.50
2022-08-31T12:18:52.656Z,4.50
2022-08-31T12:21:49.149Z,4.03
2022-08-31T12:24:29.697Z,3.87
2022-08-31T12:27:14.911Z,4.10
2022-08-31T12:29:43.986Z,3.77
2022-08-31T12:32:26.815Z,3.90
2022-08-31T12:35:13.192Z,3.90
2022-08-31T12:37:43.178Z,3.50
2022-08-31T12:40:20.205Z,3.40
2022-08-31T12:42:57.397Z,3.40
2022-08-31T12:45:59.576Z,3.40
2022-08-31T12:48:51.845Z,3.30
2022-08-31T12:51:37.161Z,3.50
2022-08-31T12:54:43.452Z,3.87
2022-08-31T12:57:30.843Z,3.67
2022-08-31T13:00:06.262Z,3.40
2022-08-31T13:02:41.923Z,3.30
2022-08-31T13:05:23.015Z,3.30
2022-08-31T13:07:53.511Z,3.20
2022-08-31T13:10:29.790Z,3.30
2022-08-31T13:13:02.250Z,3.20
2022-08-31T13:15:39.128Z,3.27
2022-08-31T13:18:12.658Z,3.33
2022-08-31T13:20:43.997Z,3.00
2022-08-31T13:23:15.456Z,3.13
2022-08-31T13:25:49.691Z,2.83
2022-08-31T13:28:30.035Z,2.90
2022-08-31T13:31:03.309Z,2.83
2022-08-31T13:33:35.213Z,2.80
2022-08-31T13:36:09.775Z,3.20
2022-08-31T13:38:51.590Z,3.10
2022-08-31T13:41:27.345Z,2.63
2022-08-31T13:44:02.692Z,2.70
2022-08-31T13:46:42.830Z,3.07
2022-08-31T13:49:32.377Z,2.73
2022-08-31T13:52:02.535Z,2.60
2022-08-31T13:54:34.178Z,2.60
2022-08-31T13:57:23.454Z,2.40
2022-08-31T13:59:54.076Z,2.53
2022-08-31T14:02:37.342Z,2.67
2022-08-31T14:05:10.394Z,2.90
2022-08-31T14:07:56.498Z,2.70
2022-08-31T14:10:28.349Z,2.50
2022-08-31T14:13:00.207Z,2.77
2022-08-31T14:15:37.411Z,2.80
2022-08-31T14:18:25.798Z,2.70
2022-08-31T14:21:22.636Z,2.63
2022-08-31T14:23:55.021Z,2.70
2022-08-31T14:26:29.092Z,3.23
2022-08-31T14:29:01.095Z,2.87
2022-08-31T14:31:37.087Z,2.50
2022-08-31T14:34:20.405Z,3.10
2022-08-31T14:36:53.743Z,3.00
2022-08-31T14:39:27.011Z,2.97
2022-08-31T14:41:58.008Z,2.97
2022-08-31T14:44:30.937Z,3.17
2022-08-31T14:47:01.511Z,2.80
2022-08-31T14:49:36.357Z,3.17
2022-08-31T14:52:07.068Z,2.80
2022-08-31T14:54:37.902Z,3.00
2022-08-31T14:57:13.443Z,2.77
2022-08-31T14:59:46.755Z,3.03
2022-08-31T15:02:21.198Z,2.83
2022-08-31T15:04:53.081Z,3.10
2022-08-31T15:07:22.013Z,2.70
2022-08-31T15:09:52.374Z,2.97
2022-08-31T15:12:23.478Z,3.17
2022-08-31T15:14:59.877Z,2.67
2022-08-31T15:17:36.407Z,3.00
2022-08-31T15:20:06.436Z,2.67
2022-08-31T15:22:40.408Z,3.03
2022-08-31T15:25:12.393Z,2.70
2022-08-31T15:27:44.176Z,3.43
2022-08-31T15:30:19.929Z,3.37
2022-08-31T15:32:50.715Z,3.17
2022-08-31T15:35:24.123Z,2.90
2022-08-31T15:38:00.418Z,2.80
2022-08-31T15:40:38.715Z,2.93
2022-08-31T15:43:09.459Z,2.77
2022-08-31T15:45:38.874Z,2.53
2022-08-31T15:48:26.942Z,2.90
2022-08-31T15:51:00.521Z,2.93
2022-08-31T15:53:31.940Z,3.27
2022-08-31T15:56:05.416Z,2.97
2022-08-31T15:58:34.872Z,3.00
2022-08-31T16:01:05.439Z,2.73
2022-08-31T16:03:36.014Z,2.70
2022-08-31T16:06:05.743Z,3.53
2022-08-31T16:08:34.706Z,3.47
2022-08-31T16:11:03.559Z,3.20
2022-08-31T16:13:32.967Z,3.27
2022-08-31T16:16:01.877Z,2.93
2022-08-31T16:18:31.200Z,3.20
2022-08-31T16:21:07.723Z,3.17
2022-08-31T16:23:36.554Z,3.30
2022-08-31T16:26:06.366Z,2.80
2022-08-31T16:28:35.815Z,3.37
2022-08-31T16:31:06.167Z,3.10
2022-08-31T16:33:35.272Z,3.10
2022-08-31T16:36:06.518Z,3.10
2022-08-31T16:38:35.311Z,2.83
2022-08-31T16:41:06.268Z,3.10
2022-08-31T16:43:35.126Z,2.70
2022-08-31T16:46:18.930Z,3.03
2022-08-31T16:49:11.311Z,2.90
2022-08-31T16:51:44.566Z,2.90
2022-08-31T16:54:18.842Z,3.23
2022-08-31T16:56:51.247Z,3.13
2022-08-31T16:59:21.406Z,2.90
2022-08-31T17:01:50.386Z,2.90
2022-08-31T17:04:48.245Z,3.10
2022-08-31T17:07:16.261Z,2.93
2022-08-31T17:09:46.756Z,3.00
2022-08-31T17:12:19.155Z,3.33
2022-08-31T17:14:52.389Z,2.77
2022-08-31T17:17:24.883Z,2.97
2022-08-31T17:19:55.762Z,3.33
2022-08-31T17:22:33.272Z,3.10
2022-08-31T17:25:04.940Z,3.00
2022-08-31T17:27:35.585Z,3.00
2022-08-31T17:30:07.783Z,3.27
2022-08-31T17:32:45.105Z,3.00
2022-08-31T17:35:18.348Z,3.07
2022-08-31T17:37:50.027Z,3.20
2022-08-31T17:40:19.792Z,3.20
2022-08-31T17:42:52.026Z,3.30
2022-08-31T17:45:21.247Z,3.40
2022-08-31T17:47:50.242Z,3.10
2022-08-31T17:50:21.157Z,3.60
2022-08-31T17:52:51.507Z,3.07
2022-08-31T17:55:20.847Z,2.93
2022-08-31T17:57:49.788Z,2.93
2022-08-31T18:00:19.046Z,2.93
2022-08-31T18:02:49.442Z,2.67
2022-08-31T18:05:18.832Z,2.97
2022-08-31T18:07:50.041Z,3.50
2022-08-31T18:10:20.331Z,3.33
2022-08-31T18:12:49.332Z,3.03
2022-08-31T18:15:18.957Z,2.90
2022-08-31T18:17:48.603Z,3.00
2022-08-31T18:20:17.452Z,2.90
2022-08-31T18:22:52.056Z,3.20
2022-08-31T18:25:23.047Z,3.20
2022-08-31T18:27:52.224Z,2.90
2022-08-31T18:30:22.848Z,3.50
2022-08-31T18:32:52.739Z,3.07
2022-08-31T18:35:21.931Z,3.20
2022-08-31T18:37:51.018Z,3.50
2022-08-31T18:40:37.849Z,3.00
2022-08-31T18:43:26.240Z,3.23
2022-08-31T18:45:55.349Z,3.20
2022-08-31T18:48:27.391Z,2.87
2022-08-31T18:50:58.938Z,3.43
2022-08-31T18:53:30.385Z,3.00
2022-08-31T18:56:06.983Z,3.60
2022-08-31T18:58:38.239Z,2.93
2022-08-31T19:01:12.218Z,3.07
2022-08-31T19:03:42.454Z,3.73
2022-08-31T19:06:18.255Z,2.87
2022-08-31T19:08:47.090Z,2.93
2022-08-31T19:11:16.130Z,3.27
2022-08-31T19:13:46.871Z,3.37
2022-08-31T19:16:18.927Z,3.60
2022-08-31T19:18:48.458Z,3.20
2022-08-31T19:21:22.369Z,3.00
2022-08-31T19:23:52.673Z,3.27
2022-08-31T19:26:24.471Z,3.30
2022-08-31T19:28:55.382Z,3.53
2022-08-31T19:31:27.169Z,3.70
2022-08-31T19:33:57.361Z,3.47
2022-08-31T19:36:27.084Z,3.70
2022-08-31T19:38:56.998Z,3.93
2022-08-31T19:41:28.506Z,3.47
2022-08-31T19:44:09.001Z,3.60
2022-08-31T19:46:39.641Z,3.73
2022-08-31T19:49:10.970Z,3.57
2022-08-31T19:51:40.992Z,3.73
2022-08-31T19:54:12.200Z,3.80
2022-08-31T19:56:43.604Z,3.50
2022-08-31T19:59:18.079Z,3.50
2022-08-31T20:01:48.919Z,3.63
2022-08-31T20:04:18.988Z,3.50
2022-08-31T20:06:52.383Z,3.77
2022-08-31T20:09:23.383Z,3.80
2022-08-31T20:11:53.438Z,3.80
2022-08-31T20:14:24.679Z,3.90
2022-08-31T20:16:54.871Z,3.90
2022-08-31T20:19:25.640Z,3.70
2022-08-31T20:22:06.871Z,3.60
2022-08-31T20:24:37.058Z,3.87
2022-08-31T20:27:10.406Z,3.60
2022-08-31T20:29:40.612Z,3.43
2022-08-31T20:32:10.123Z,3.60
2022-08-31T20:34:39.094Z,3.57
2022-08-31T20:37:07.892Z,3.40
2022-08-31T20:39:37.212Z,3.50
2022-08-31T20:42:07.083Z,3.63
2022-08-31T20:44:38.148Z,3.50
2022-08-31T20:47:28.871Z,3.70
2022-08-31T20:49:59.668Z,3.47
2022-08-31T20:52:30.629Z,3.30
2022-08-31T20:55:02.359Z,3.30
2022-08-31T20:57:34.957Z,3.20
2022-08-31T21:00:05.972Z,3.33
2022-08-31T21:02:39.683Z,3.40
2022-08-31T21:05:36.717Z,3.50
2022-08-31T21:08:00.038Z,3.40
2022-08-31T21:10:37.884Z,3.67
2022-08-31T21:13:09.976Z,4.00
2022-08-31T21:15:44.516Z,3.70
2022-08-31T21:18:17.520Z,4.03
2022-08-31T21:20:48.427Z,3.67
2022-08-31T21:23:18.396Z,3.60
2022-08-31T21:25:47.768Z,3.90
2022-08-31T21:28:18.613Z,3.47
2022-08-31T21:30:50.252Z,3.73
2022-08-31T21:33:20.997Z,3.93
2022-08-31T21:35:50.111Z,3.30
2022-08-31T21:38:18.958Z,3.80
2022-08-31T21:40:49.141Z,3.47
2022-08-31T21:43:18.381Z,3.83
2022-08-31T21:45:48.213Z,3.50
2022-08-31T21:48:25.683Z,3.93
2022-08-31T21:50:55.688Z,3.40
2022-08-31T21:53:27.165Z,3.63
2022-08-31T21:55:56.299Z,3.80
2022-08-31T21:58:25.978Z,4.40
2022-08-31T22:00:55.424Z,4.43
2022-08-31T22:03:25.904Z,4.00
2022-08-31T22:05:55.700Z,4.00
2022-08-31T22:08:26.133Z,4.70
2022-08-31T22:10:55.455Z,4.10
2022-08-31T22:13:24.438Z,4.20
2022-08-31T22:15:58.706Z,4.07
2022-08-31T22:19:00.110Z,3.93
2022-08-31T22:21:24.265Z,4.03
2022-08-31T22:23:56.586Z,4.23
2022-08-31T22:26:28.594Z,3.97
2022-08-31T22:28:59.994Z,3.90
2022-08-31T22:31:31.132Z,4.33
2022-08-31T22:34:01.583Z,3.73
2022-08-31T22:36:32.665Z,3.73
2022-08-31T22:39:03.183Z,3.60
2022-08-31T22:41:32.646Z,3.63
2022-08-31T22:44:01.740Z,3.50
2022-08-31T22:46:30.748Z,3.70
2022-08-31T22:49:01.666Z,3.60
2022-08-31T22:51:30.846Z,3.63
2022-08-31T22:54:00.700Z,3.63
2022-08-31T22:56:32.456Z,3.40
2022-08-31T22:59:02.964Z,3.73
2022-08-31T23:01:41.838Z,3.53
2022-08-31T23:04:14.456Z,3.50
2022-08-31T23:06:43.722Z,3.80
2022-08-31T23:09:13.370Z,3.87
2022-08-31T23:11:42.851Z,3.60
2022-08-31T23:14:12.204Z,3.53
2022-08-31T23:16:44.716Z,3.70
2022-08-31T23:19:17.562Z,3.37
2022-08-31T23:21:53.008Z,3.57
2022-08-31T23:24:29.156Z,3.87
2022-08-31T23:27:03.843Z,3.50
2022-08-31T23:29:36.435Z,3.70
2022-08-31T23:32:05.463Z,3.50
2022-08-31T23:34:38.376Z,3.50
2022-08-31T23:37:10.379Z,3.67
2022-08-31T23:39:41.207Z,3.73
2022-08-31T23:42:12.093Z,3.63
2022-08-31T23:44:43.335Z,3.50
2022-08-31T23:47:16.853Z,3.77
2022-08-31T23:49:51.063Z,3.77
2022-08-31T23:52:21.465Z,4.00
2022-08-31T23:54:54.554Z,3.77
2022-08-31T23:57:32.441Z,3.70
